sensor_id;sensor_type;location;lat;lon;timestamp;pressure;altitude;pressure_sealevel;temperature;humidity
53089;BME280;38968;47.696;17.540;2023-04-09T00:00:37;10101620.0;;;8.9;67.20898
53089;BME280;38968;47.696;17.540;2023-04-09T00:05:40;10101790.0;;;8.87;66.96387
53089;BME280;38968;47.696;17.540;2023-04-09T00:10:36;10101180.0;;;8.92;66.94922
53089;BME280;38968;47.696;17.540;2023-04-09T00:15:36;10101700.0;;;8.94;67.38477
53089;BME280;38968;47.696;17.540;2023-04-09T00:20:36;10101180.0;;;8.85;66.95996
53089;BME280;38968;47.696;17.540;2023-04-09T00:25:36;10101620.0;;;8.9;67.23145
53089;BME280;38968;47.696;17.540;2023-04-09T00:30:36;10101690.0;;;8.66;67.88867
53089;BME280;38968;47.696;17.540;2023-04-09T00:35:36;10101170.0;;;8.78;68.01074
53089;BME280;38968;47.696;17.540;2023-04-09T00:40:36;10101960.0;;;8.86;67.5332
53089;BME280;38968;47.696;17.540;2023-04-09T00:45:37;10101280.0;;;9.05;67.15234
53089;BME280;38968;47.696;17.540;2023-04-09T00:50:36;10102060.0;;;9.06;66.38965
53089;BME280;38968;47.696;17.540;2023-04-09T00:55:41;10101440.0;;;8.88;66.68066
53089;BME280;38968;47.696;17.540;2023-04-09T01:00:37;10101170.0;;;8.74;67.39941
53089;BME280;38968;47.696;17.540;2023-04-09T01:05:40;10101000.0;;;8.76;67.4375
53089;BME280;38968;47.696;17.540;2023-04-09T01:10:46;10101530.0;;;8.91;67.71094
53089;BME280;38968;47.696;17.540;2023-04-09T01:15:38;10101100.0;;;8.96;67.28613
53089;BME280;38968;47.696;17.540;2023-04-09T01:20:50;10100840.0;;;9.05;66.73242
53089;BME280;38968;47.696;17.540;2023-04-09T01:25:59;10100670.0;;;9.06;66.29883
53089;BME280;38968;47.696;17.540;2023-04-09T01:30:38;10101010.0;;;8.9;66.20508
53089;BME280;38968;47.696;17.540;2023-04-09T01:35:36;10100740.0;;;8.76;67.2207
53089;BME280;38968;47.696;17.540;2023-04-09T01:40:37;10100740.0;;;8.76;67.2207
53089;BME280;38968;47.696;17.540;2023-04-09T01:45:37;10100120.0;;;8.66;67.55859
53089;BME280;38968;47.696;17.540;2023-04-09T01:50:36;10100830.0;;;8.79;67.39746
53089;BME280;38968;47.696;17.540;2023-04-09T01:55:36;10099870.0;;;8.85;67.41504
53089;BME280;38968;47.696;17.540;2023-04-09T02:00:44;10100040.0;;;8.7;67.86133
53089;BME280;38968;47.696;17.540;2023-04-09T02:05:39;10100130.0;;;8.83;67.52832
53089;BME280;38968;47.696;17.540;2023-04-09T02:10:37;10101000.0;;;8.76;67.12988
53089;BME280;38968;47.696;17.540;2023-04-09T02:15:38;10100730.0;;;8.67;67.53711
53089;BME280;38968;47.696;17.540;2023-04-09T02:20:36;10100630.0;;;8.54;67.91504
53089;BME280;38968;47.696;17.540;2023-04-09T02:25:36;10100300.0;;;8.69;67.9043
53089;BME280;38968;47.696;17.540;2023-04-09T02:30:36;10100380.0;;;8.65;67.21484
53089;BME280;38968;47.696;17.540;2023-04-09T02:35:36;10099770.0;;;8.58;67.4668
53089;BME280;38968;47.696;17.540;2023-04-09T02:40:36;10099920.0;;;8.39;68.0625
53089;BME280;38968;47.696;17.540;2023-04-09T02:45:37;10099410.0;;;8.53;67.98242
53089;BME280;38968;47.696;17.540;2023-04-09T02:50:36;10099240.0;;;8.53;67.67578
53089;BME280;38968;47.696;17.540;2023-04-09T02:55:36;10098880.0;;;8.36;67.51172
53089;BME280;38968;47.696;17.540;2023-04-09T03:00:36;10099300.0;;;8.28;67.70313
53089;BME280;38968;47.696;17.540;2023-04-09T03:05:36;10098870.0;;;8.28;68.25
53089;BME280;38968;47.696;17.540;2023-04-09T03:10:36;10097580.0;;;8.39;68.5625
53089;BME280;38968;47.696;17.540;2023-04-09T03:15:36;10097490.0;;;8.36;67.55664
53089;BME280;38968;47.696;17.540;2023-04-09T03:20:37;10097410.0;;;8.41;67.42773
53089;BME280;38968;47.696;17.540;2023-04-09T03:25:37;10098350.0;;;8.25;67.97363
53089;BME280;38968;47.696;17.540;2023-04-09T03:30:36;10097300.0;;;8.28;68.15918
53089;BME280;38968;47.696;17.540;2023-04-09T03:35:36;10097990.0;;;8.2;68.01074
53089;BME280;38968;47.696;17.540;2023-04-09T03:40:36;10098070.0;;;8.15;68.46777
53089;BME280;38968;47.696;17.540;2023-04-09T03:45:36;10097730.0;;;8.23;67.9248
53089;BME280;38968;47.696;17.540;2023-04-09T03:50:38;10098600.0;;;8.15;68.35449
53089;BME280;38968;47.696;17.540;2023-04-09T03:55:36;10098860.0;;;8.22;68.27441
53089;BME280;38968;47.696;17.540;2023-04-09T04:00:36;10099030.0;;;8.17;68.45996
53089;BME280;38968;47.696;17.540;2023-04-09T04:05:36;10100680.0;;;8.13;68.5332
53089;BME280;38968;47.696;17.540;2023-04-09T04:10:36;10100960.0;;;8.35;68.41895
53089;BME280;38968;47.696;17.540;2023-04-09T04:15:40;10100160.0;;;8.21;67.78418
53089;BME280;38968;47.696;17.540;2023-04-09T04:20:37;10100610.0;;;8.33;68.35938
53089;BME280;38968;47.696;17.540;2023-04-09T04:25:39;10100610.0;;;8.31;68.18652
53089;BME280;38968;47.696;17.540;2023-04-09T04:30:36;10101400.0;;;8.37;67.99121
53089;BME280;38968;47.696;17.540;2023-04-09T04:35:37;10101070.0;;;8.63;67.92871
53089;BME280;38968;47.696;17.540;2023-04-09T04:40:36;10101080.0;;;8.75;66.86621
53089;BME280;38968;47.696;17.540;2023-04-09T04:45:36;10101180.0;;;8.86;66.73633
53089;BME280;38968;47.696;17.540;2023-04-09T04:50:36;10101440.0;;;8.81;66.8418
53089;BME280;38968;47.696;17.540;2023-04-09T04:55:37;10102060.0;;;8.97;66.59277
53089;BME280;38968;47.696;17.540;2023-04-09T05:00:36;10102050.0;;;8.85;66.62012
53089;BME280;38968;47.696;17.540;2023-04-09T05:05:36;10102210.0;;;8.71;66.19922
53089;BME280;38968;47.696;17.540;2023-04-09T05:10:40;10103240.0;;;8.54;66.76563
53089;BME280;38968;47.696;17.540;2023-04-09T05:15:40;10103250.0;;;8.74;67.83203
53089;BME280;38968;47.696;17.540;2023-04-09T05:20:36;10103240.0;;;8.62;67.1084
53089;BME280;38968;47.696;17.540;2023-04-09T05:25:36;10103660.0;;;8.38;67.67383
53089;BME280;38968;47.696;17.540;2023-04-09T05:30:36;10104030.0;;;8.62;68.42773
53089;BME280;38968;47.696;17.540;2023-04-09T05:35:39;10104470.0;;;8.76;67.6875
53089;BME280;38968;47.696;17.540;2023-04-09T05:40:36;10104410.0;;;9.02;66.63379
53089;BME280;38968;47.696;17.540;2023-04-09T05:45:36;10105530.0;;;8.9;66.68457
53089;BME280;38968;47.696;17.540;2023-04-09T05:50:37;10105620.0;;;8.98;67.72266
53089;BME280;38968;47.696;17.540;2023-04-09T05:55:36;10105800.0;;;9.04;66.99023
53089;BME280;38968;47.696;17.540;2023-04-09T06:00:36;10106060.0;;;9.12;65.60059
53089;BME280;38968;47.696;17.540;2023-04-09T06:05:36;10106590.0;;;9.1;64.76563
53089;BME280;38968;47.696;17.540;2023-04-09T06:10:36;10107120.0;;;9.25;64.53613
53089;BME280;38968;47.696;17.540;2023-04-09T06:15:37;10106590.0;;;9.1;65.30078
53089;BME280;38968;47.696;17.540;2023-04-09T06:20:36;10107290.0;;;9.22;64.88672
53089;BME280;38968;47.696;17.540;2023-04-09T06:25:36;10106610.0;;;9.42;63.71777
53089;BME280;38968;47.696;17.540;2023-04-09T06:30:36;10107460.0;;;9.2;63.125
53089;BME280;38968;47.696;17.540;2023-04-09T06:35:37;10107100.0;;;8.96;63.51367
53089;BME280;38968;47.696;17.540;2023-04-09T06:40:37;10106940.0;;;9.27;63.1709
53089;BME280;38968;47.696;17.540;2023-04-09T06:45:36;10108050.0;;;9;63.1084
53089;BME280;38968;47.696;17.540;2023-04-09T06:50:36;10108250.0;;;9.26;63.6709
53089;BME280;38968;47.696;17.540;2023-04-09T06:55:36;10108190.0;;;9.67;61.82227
53089;BME280;38968;47.696;17.540;2023-04-09T07:00:37;10108700.0;;;9.53;62.52344
53089;BME280;38968;47.696;17.540;2023-04-09T07:05:36;10109050.0;;;9.49;62.02734
53089;BME280;38968;47.696;17.540;2023-04-09T07:10:36;10109200.0;;;9.22;62.66113
53089;BME280;38968;47.696;17.540;2023-04-09T07:15:36;10109400.0;;;9.54;62.94727
53089;BME280;38968;47.696;17.540;2023-04-09T07:20:36;10110120.0;;;9.98;61.35254
53089;BME280;38968;47.696;17.540;2023-04-09T07:25:36;10110460.0;;;9.98;61.77637
53089;BME280;38968;47.696;17.540;2023-04-09T07:30:37;10110210.0;;;10.13;61.08887
53089;BME280;38968;47.696;17.540;2023-04-09T07:35:36;10110380.0;;;10.13;61.78613
53089;BME280;38968;47.696;17.540;2023-04-09T07:40:36;10110390.0;;;10.31;62.09668
53089;BME280;38968;47.696;17.540;2023-04-09T07:45:36;10110570.0;;;10.58;60.6582
53089;BME280;38968;47.696;17.540;2023-04-09T07:50:36;10111360.0;;;10.84;59.18164
53089;BME280;38968;47.696;17.540;2023-04-09T07:55:37;10111100.0;;;11.03;57.89746
53089;BME280;38968;47.696;17.540;2023-04-09T08:00:36;10112150.0;;;11.1;58.35547
53089;BME280;38968;47.696;17.540;2023-04-09T08:05:36;10111970.0;;;11.28;56.8291
53089;BME280;38968;47.696;17.540;2023-04-09T08:10:36;10111090.0;;;11.38;57.07129
53089;BME280;38968;47.696;17.540;2023-04-09T08:15:36;10111960.0;;;11.86;54.31445
53089;BME280;38968;47.696;17.540;2023-04-09T08:20:36;10111690.0;;;12.13;54.49805
53089;BME280;38968;47.696;17.540;2023-04-09T08:25:36;10111400.0;;;12.61;52.23926
53089;BME280;38968;47.696;17.540;2023-04-09T08:30:37;10111840.0;;;12.6;50.27734
53089;BME280;38968;47.696;17.540;2023-04-09T08:35:36;10111380.0;;;12.8;49.47949
53089;BME280;38968;47.696;17.540;2023-04-09T08:40:36;10111820.0;;;12.8;49.15527
53089;BME280;38968;47.696;17.540;2023-04-09T08:45:38;10112010.0;;;12.66;49.42871
53089;BME280;38968;47.696;17.540;2023-04-09T08:50:36;10112550.0;;;12.35;48.83984
53089;BME280;38968;47.696;17.540;2023-04-09T08:55:37;10113360.0;;;11.91;50.98047
53089;BME280;38968;47.696;17.540;2023-04-09T09:00:37;10113360.0;;;11.65;50.95117
53089;BME280;38968;47.696;17.540;2023-04-09T09:05:41;10114240.0;;;10.7;57.29395
53089;BME280;38968;47.696;17.540;2023-04-09T09:10:43;10114390.0;;;10.06;59.99121
53089;BME280;38968;47.696;17.540;2023-04-09T09:15:36;10114500.0;;;10.74;58.78906
53089;BME280;38968;47.696;17.540;2023-04-09T09:20:36;10114670.0;;;10.56;58.54785
53089;BME280;38968;47.696;17.540;2023-04-09T09:25:40;10114660.0;;;10.39;58.87988
53089;BME280;38968;47.696;17.540;2023-04-09T09:30:37;10114220.0;;;10.31;58.67383
53089;BME280;38968;47.696;17.540;2023-04-09T09:35:50;10115080.0;;;10.02;59.64258
53089;BME280;38968;47.696;17.540;2023-04-09T09:40:36;10113960.0;;;10.37;58.73926
53089;BME280;38968;47.696;17.540;2023-04-09T09:45:36;10113890.0;;;10.81;57.43359
53089;BME280;38968;47.696;17.540;2023-04-09T09:50:37;10114580.0;;;10.39;58.38672
53089;BME280;38968;47.696;17.540;2023-04-09T09:55:41;10113540.0;;;10.86;57.10742
53089;BME280;38968;47.696;17.540;2023-04-09T10:00:37;10113710.0;;;11.38;56.73828
53089;BME280;38968;47.696;17.540;2023-04-09T10:05:37;10113800.0;;;11.69;54.91504
53089;BME280;38968;47.696;17.540;2023-04-09T10:10:38;10114240.0;;;11.39;54.48633
53089;BME280;38968;47.696;17.540;2023-04-09T10:15:36;10114590.0;;;11.14;55.8457
53089;BME280;38968;47.696;17.540;2023-04-09T10:25:36;10114410.0;;;11.6;55.75684
53089;BME280;38968;47.696;17.540;2023-04-09T10:30:36;10113450.0;;;11.71;55.5166
53089;BME280;38968;47.696;17.540;2023-04-09T10:35:36;10113620.0;;;11.8;54.90625
53089;BME280;38968;47.696;17.540;2023-04-09T10:40:46;10113880.0;;;11.86;55.16797
53089;BME280;38968;47.696;17.540;2023-04-09T10:45:40;10112840.0;;;11.74;55.32422
53089;BME280;38968;47.696;17.540;2023-04-09T10:50:37;10113020.0;;;11.46;56.09375
53089;BME280;38968;47.696;17.540;2023-04-09T10:55:40;10112670.0;;;11.16;57.1123
53089;BME280;38968;47.696;17.540;2023-04-09T11:00:38;10112310.0;;;11.56;56.93359
53089;BME280;38968;47.696;17.540;2023-04-09T11:05:36;10113630.0;;;11.28;56.95508
53089;BME280;38968;47.696;17.540;2023-04-09T11:10:38;10112930.0;;;11.09;57.7334
53089;BME280;38968;47.696;17.540;2023-04-09T11:15:37;10112760.0;;;11.34;56.96289
53089;BME280;38968;47.696;17.540;2023-04-09T11:20:37;10112660.0;;;11.56;56.00391
53089;BME280;38968;47.696;17.540;2023-04-09T11:25:36;10113000.0;;;12.1;53.28516
53089;BME280;38968;47.696;17.540;2023-04-09T11:30:36;10112530.0;;;12.63;52.1377
53089;BME280;38968;47.696;17.540;2023-04-09T11:35:37;10112380.0;;;12.28;53.36523
53089;BME280;38968;47.696;17.540;2023-04-09T11:40:40;10112790.0;;;12.67;52.7666
53089;BME280;38968;47.696;17.540;2023-04-09T11:45:36;10112560.0;;;12.12;52.75781
53089;BME280;38968;47.696;17.540;2023-04-09T11:50:37;10112570.0;;;11.86;53.42969
53089;BME280;38968;47.696;17.540;2023-04-09T11:55:36;10112750.0;;;11.32;54.47852
53089;BME280;38968;47.696;17.540;2023-04-09T12:00:39;10112910.0;;;12.17;52.9834
53089;BME280;38968;47.696;17.540;2023-04-09T12:05:36;10112670.0;;;11.41;53.71973
53089;BME280;38968;47.696;17.540;2023-04-09T12:10:37;10112660.0;;;11.87;53.25781
53089;BME280;38968;47.696;17.540;2023-04-09T12:15:38;10112570.0;;;11.92;52.65332
53089;BME280;38968;47.696;17.540;2023-04-09T12:20:43;10112140.0;;;11.56;52.56348
53089;BME280;38968;47.696;17.540;2023-04-09T12:25:38;10112570.0;;;11.92;52.42285
53089;BME280;38968;47.696;17.540;2023-04-09T12:30:36;10112400.0;;;11.59;53.56836
53089;BME280;38968;47.696;17.540;2023-04-09T12:35:36;10112010.0;;;12.58;51.61328
53089;BME280;38968;47.696;17.540;2023-04-09T12:40:37;10111900.0;;;12.99;50.02051
53089;BME280;38968;47.696;17.540;2023-04-09T12:45:36;10111670.0;;;12.42;48.66309
53089;BME280;38968;47.696;17.540;2023-04-09T12:50:37;10110830.0;;;13.09;49.10742
53089;BME280;38968;47.696;17.540;2023-04-09T12:55:37;10111070.0;;;13.42;47.29297
53089;BME280;38968;47.696;17.540;2023-04-09T13:00:36;10110630.0;;;13.5;47.93848
53089;BME280;38968;47.696;17.540;2023-04-09T13:05:37;10110770.0;;;13.77;46.21875
53089;BME280;38968;47.696;17.540;2023-04-09T13:10:36;10110890.0;;;13.54;45.74219
53089;BME280;38968;47.696;17.540;2023-04-09T13:15:37;10109990.0;;;13.72;46.83887
53089;BME280;38968;47.696;17.540;2023-04-09T13:20:37;10109370.0;;;13.81;46.17578
53089;BME280;38968;47.696;17.540;2023-04-09T13:25:36;10109200.0;;;13.75;45.49707
53089;BME280;38968;47.696;17.540;2023-04-09T13:30:37;10108320.0;;;14.47;44.62012
53089;BME280;38968;47.696;17.540;2023-04-09T13:35:36;10108830.0;;;16.05;41.0127
53089;BME280;38968;47.696;17.540;2023-04-09T13:40:36;10107810.0;;;16.67;40.08887
53089;BME280;38968;47.696;17.540;2023-04-09T13:45:37;10108210.0;;;18.15;37.71289
53089;BME280;38968;47.696;17.540;2023-04-09T13:50:36;10107960.0;;;18.38;34.71387
53089;BME280;38968;47.696;17.540;2023-04-09T13:55:37;10107050.0;;;18.47;35.30859
53089;BME280;38968;47.696;17.540;2023-04-09T14:00:36;10106280.0;;;19.72;33.98145
53089;BME280;38968;47.696;17.540;2023-04-09T14:05:36;10106580.0;;;19.36;33.91895
53089;BME280;38968;47.696;17.540;2023-04-09T14:10:37;10105660.0;;;18.42;35.33984
53089;BME280;38968;47.696;17.540;2023-04-09T14:15:37;10106050.0;;;16.66;37.44531
53089;BME280;38968;47.696;17.540;2023-04-09T14:20:37;10106070.0;;;16.19;39.07617
53089;BME280;38968;47.696;17.540;2023-04-09T14:25:36;10105320.0;;;16.4;38.93164
53089;BME280;38968;47.696;17.540;2023-04-09T14:30:37;10105310.0;;;16.04;39.22754
53089;BME280;38968;47.696;17.540;2023-04-09T14:35:36;10105270.0;;;15.84;39.58203
53089;BME280;38968;47.696;17.540;2023-04-09T14:40:36;10105290.0;;;15.73;40.14355
53089;BME280;38968;47.696;17.540;2023-04-09T14:45:37;10104820.0;;;15.44;40.49023
53089;BME280;38968;47.696;17.540;2023-04-09T14:50:36;10104970.0;;;15.53;41.37207
53089;BME280;38968;47.696;17.540;2023-04-09T14:55:37;10105030.0;;;15.73;40.64551
53089;BME280;38968;47.696;17.540;2023-04-09T15:00:37;10104410.0;;;15.75;40.63574
53089;BME280;38968;47.696;17.540;2023-04-09T15:05:36;10105330.0;;;15.07;40.92188
53089;BME280;38968;47.696;17.540;2023-04-09T15:10:37;10104360.0;;;15.54;40.89551
53089;BME280;38968;47.696;17.540;2023-04-09T15:15:39;10104360.0;;;15.52;40.56836
53089;BME280;38968;47.696;17.540;2023-04-09T15:20:37;10103720.0;;;15.22;40.95898
53089;BME280;38968;47.696;17.540;2023-04-09T15:25:36;10103820.0;;;15.13;41.48633
53089;BME280;38968;47.696;17.540;2023-04-09T15:30:36;10103760.0;;;14.99;40.89063
53089;BME280;38968;47.696;17.540;2023-04-09T15:35:37;10103460.0;;;15.17;40.50098
53089;BME280;38968;47.696;17.540;2023-04-09T15:40:39;10103570.0;;;15.09;40.57422
53089;BME280;38968;47.696;17.540;2023-04-09T15:45:37;10104270.0;;;15.07;41.42285
53089;BME280;38968;47.696;17.540;2023-04-09T15:50:36;10104530.0;;;15.11;41.62402
53089;BME280;38968;47.696;17.540;2023-04-09T15:55:36;10104350.0;;;15.13;41.87012
53089;BME280;38968;47.696;17.540;2023-04-09T16:00:37;10105200.0;;;15.29;41.46582
53089;BME280;38968;47.696;17.540;2023-04-09T16:05:37;10104680.0;;;15.26;41.05566
53089;BME280;38968;47.696;17.540;2023-04-09T16:10:36;10105140.0;;;14.61;42.04199
53089;BME280;38968;47.696;17.540;2023-04-09T16:15:37;10103880.0;;;14.8;41.53711
53089;BME280;38968;47.696;17.540;2023-04-09T16:20:36;10104760.0;;;14.17;43.50977
53089;BME280;38968;47.696;17.540;2023-04-09T16:25:37;10105290.0;;;14.11;43.44531
53089;BME280;38968;47.696;17.540;2023-04-09T16:30:36;10105150.0;;;13.87;44.54688
53089;BME280;38968;47.696;17.540;2023-04-09T16:35:37;10104720.0;;;13.83;44.09082
53089;BME280;38968;47.696;17.540;2023-04-09T16:40:36;10104100.0;;;13.88;43.74805
53089;BME280;38968;47.696;17.540;2023-04-09T16:45:36;10104190.0;;;13.89;43.77148
53089;BME280;38968;47.696;17.540;2023-04-09T16:50:38;10104530.0;;;13.17;47.15039
53089;BME280;38968;47.696;17.540;2023-04-09T16:55:36;10105340.0;;;12.88;47.82422
53089;BME280;38968;47.696;17.540;2023-04-09T17:00:37;10105420.0;;;12.96;48.17969
53089;BME280;38968;47.696;17.540;2023-04-09T17:05:37;10105740.0;;;13.3;47.93945
53089;BME280;38968;47.696;17.540;2023-04-09T17:10:36;10106000.0;;;13.33;47.37695
53089;BME280;38968;47.696;17.540;2023-04-09T17:15:37;10106100.0;;;13.23;47.7002
53089;BME280;38968;47.696;17.540;2023-04-09T17:20:36;10106790.0;;;13.35;47.59766
53089;BME280;38968;47.696;17.540;2023-04-09T17:25:36;10105850.0;;;13.05;49.02148
53089;BME280;38968;47.696;17.540;2023-04-09T17:30:37;10106040.0;;;12.89;50.15918
53089;BME280;38968;47.696;17.540;2023-04-09T17:35:36;10106050.0;;;12.88;49.9043
53089;BME280;38968;47.696;17.540;2023-04-09T17:40:36;10106570.0;;;12.84;50.53613
53089;BME280;38968;47.696;17.540;2023-04-09T17:45:36;10107540.0;;;12.69;50.33301
53089;BME280;38968;47.696;17.540;2023-04-09T17:50:37;10108430.0;;;12.49;51.34961
53089;BME280;38968;47.696;17.540;2023-04-09T17:55:36;10108180.0;;;12.42;51.44336
53089;BME280;38968;47.696;17.540;2023-04-09T18:00:38;10108440.0;;;12.4;52.08887
53089;BME280;38968;47.696;17.540;2023-04-09T18:05:37;10108770.0;;;12.65;51.89844
53089;BME280;38968;47.696;17.540;2023-04-09T18:10:36;10110010.0;;;12.46;52.1416
53089;BME280;38968;47.696;17.540;2023-04-09T18:15:36;10108790.0;;;12.47;51.78516
53089;BME280;38968;47.696;17.540;2023-04-09T18:20:37;10109380.0;;;12.66;51.36914
53089;BME280;38968;47.696;17.540;2023-04-09T18:25:36;10109210.0;;;12.66;51.18359
53089;BME280;38968;47.696;17.540;2023-04-09T18:30:37;10110700.0;;;12.58;51.77441
53089;BME280;38968;47.696;17.540;2023-04-09T18:35:36;10110810.0;;;12.31;52.25
53089;BME280;38968;47.696;17.540;2023-04-09T18:40:41;10111680.0;;;12.39;51.41699
53089;BME280;38968;47.696;17.540;2023-04-09T18:45:36;10112390.0;;;12.11;53.48242
53089;BME280;38968;47.696;17.540;2023-04-09T18:50:36;10112910.0;;;12.03;53.84277
53089;BME280;38968;47.696;17.540;2023-04-09T18:55:37;10112480.0;;;11.98;54.04199
53089;BME280;38968;47.696;17.540;2023-04-09T19:00:37;10113350.0;;;11.97;53.38477
53089;BME280;38968;47.696;17.540;2023-04-09T19:05:36;10112400.0;;;11.93;53.42578
53089;BME280;38968;47.696;17.540;2023-04-09T19:10:37;10113790.0;;;11.87;53.2002
53089;BME280;38968;47.696;17.540;2023-04-09T19:15:37;10113530.0;;;11.76;53.52051
53089;BME280;38968;47.696;17.540;2023-04-09T19:20:36;10114150.0;;;11.74;53.21875
53089;BME280;38968;47.696;17.540;2023-04-09T19:25:36;10114850.0;;;11.7;53.35254
53089;BME280;38968;47.696;17.540;2023-04-09T19:30:37;10114760.0;;;11.58;53.55469
53089;BME280;38968;47.696;17.540;2023-04-09T19:35:36;10115110.0;;;11.4;54.38379
53089;BME280;38968;47.696;17.540;2023-04-09T19:40:37;10114760.0;;;11.24;54.33008
53089;BME280;38968;47.696;17.540;2023-04-09T19:45:37;10114760.0;;;11.16;54.32129
53089;BME280;38968;47.696;17.540;2023-04-09T19:50:37;10114850.0;;;11.02;54.55469
53089;BME280;38968;47.696;17.540;2023-04-09T19:55:37;10115810.0;;;10.95;54.73145
53089;BME280;38968;47.696;17.540;2023-04-09T20:00:36;10115720.0;;;10.94;54.43164
53089;BME280;38968;47.696;17.540;2023-04-09T20:05:37;10114760.0;;;10.86;54.58105
53089;BME280;38968;47.696;17.540;2023-04-09T20:10:37;10115200.0;;;10.82;54.46191
53089;BME280;38968;47.696;17.540;2023-04-09T20:15:37;10115190.0;;;10.62;54.80469
53089;BME280;38968;47.696;17.540;2023-04-09T20:20:36;10115440.0;;;10.26;56.03125
53089;BME280;38968;47.696;17.540;2023-04-09T20:25:36;10115260.0;;;10.17;56.81055
53089;BME280;38968;47.696;17.540;2023-04-09T20:30:36;10115360.0;;;10.24;56.36133
53089;BME280;38968;47.696;17.540;2023-04-09T20:35:37;10114560.0;;;10.13;56.30176
53089;BME280;38968;47.696;17.540;2023-04-09T20:40:37;10115080.0;;;9.99;56.81055
53089;BME280;38968;47.696;17.540;2023-04-09T20:45:36;10114620.0;;;9.64;57.49707
53089;BME280;38968;47.696;17.540;2023-04-09T20:50:36;10115150.0;;;9.61;57.6084
53089;BME280;38968;47.696;17.540;2023-04-09T20:55:37;10115220.0;;;9.39;58.27539
53089;BME280;38968;47.696;17.540;2023-04-09T21:00:37;10115910.0;;;9.32;58.77051
53089;BME280;38968;47.696;17.540;2023-04-09T21:05:36;10115740.0;;;9.41;58.54102
53089;BME280;38968;47.696;17.540;2023-04-09T21:10:36;10115920.0;;;9.45;58.52246
53089;BME280;38968;47.696;17.540;2023-04-09T21:15:36;10116610.0;;;9.41;58.3125
53089;BME280;38968;47.696;17.540;2023-04-09T21:20:46;10116520.0;;;9.39;58.36719
53089;BME280;38968;47.696;17.540;2023-04-09T21:25:36;10116520.0;;;9.34;58.53223
53089;BME280;38968;47.696;17.540;2023-04-09T21:30:37;10116870.0;;;9.32;58.24316
53089;BME280;38968;47.696;17.540;2023-04-09T21:35:37;10116320.0;;;9.03;59.07324
53089;BME280;38968;47.696;17.540;2023-04-09T21:40:36;10116240.0;;;9.15;58.72168
53089;BME280;38968;47.696;17.540;2023-04-09T21:45:37;10116590.0;;;9.14;58.85938
53089;BME280;38968;47.696;17.540;2023-04-09T21:50:37;10116930.0;;;9.11;58.67285
53089;BME280;38968;47.696;17.540;2023-04-09T21:55:36;10116230.0;;;9.07;58.91797
53089;BME280;38968;47.696;17.540;2023-04-09T22:00:37;10117700.0;;;8.88;59.00684
53089;BME280;38968;47.696;17.540;2023-04-09T22:05:36;10117950.0;;;8.85;59.37891
53089;BME280;38968;47.696;17.540;2023-04-09T22:10:36;10117610.0;;;8.92;59.51465
53089;BME280;38968;47.696;17.540;2023-04-09T22:15:37;10118120.0;;;8.74;59.29492
53089;BME280;38968;47.696;17.540;2023-04-09T22:20:36;10117930.0;;;8.62;59.69141
53089;BME280;38968;47.696;17.540;2023-04-09T22:25:36;10118520.0;;;8.43;59.77832
53089;BME280;38968;47.696;17.540;2023-04-09T22:30:37;10118830.0;;;8.16;60.42383
53089;BME280;38968;47.696;17.540;2023-04-09T22:35:36;10118710.0;;;7.92;60.7207
53089;BME280;38968;47.696;17.540;2023-04-09T22:40:36;10118270.0;;;7.85;61.39453
53089;BME280;38968;47.696;17.540;2023-04-09T22:45:36;10118130.0;;;8.16;61.80273
53089;BME280;38968;47.696;17.540;2023-04-09T22:50:36;10117630.0;;;8.27;61.58008
53089;BME280;38968;47.696;17.540;2023-04-09T22:55:36;10118500.0;;;8.34;61.11035
53089;BME280;38968;47.696;17.540;2023-04-09T23:00:36;10118060.0;;;8.25;60.97168
53089;BME280;38968;47.696;17.540;2023-04-09T23:05:37;10118210.0;;;8.06;61.15137
53089;BME280;38968;47.696;17.540;2023-04-09T23:10:36;10118350.0;;;7.83;61.17383
53089;BME280;38968;47.696;17.540;2023-04-09T23:15:36;10118410.0;;;7.66;62.32324
53089;BME280;38968;47.696;17.540;2023-04-09T23:20:37;10118200.0;;;7.41;63.66211
53089;BME280;38968;47.696;17.540;2023-04-09T23:25:37;10118410.0;;;7.12;65.09473
53089;BME280;38968;47.696;17.540;2023-04-09T23:30:36;10117900.0;;;7.18;65.08105
53089;BME280;38968;47.696;17.540;2023-04-09T23:35:37;10117140.0;;;7.27;64.0957
53089;BME280;38968;47.696;17.540;2023-04-09T23:40:36;10118220.0;;;7.05;63.63086
53089;BME280;38968;47.696;17.540;2023-04-09T23:45:36;10117120.0;;;6.66;63.58691
53089;BME280;38968;47.696;17.540;2023-04-09T23:50:37;10115910.0;;;6.72;63.78711
53089;BME280;38968;47.696;17.540;2023-04-09T23:55:36;10116300.0;;;6.93;63.60449
